sensor_id;sensor_type;location;lat;lon;timestamp;pressure;altitude;pressure_sealevel;temperature;humidity
61506;BME280;47366;51.916;4.574;2023-02-28T00:00:42;103291.13;;;2.75;71.51
61506;BME280;47366;51.916;4.574;2023-02-28T00:03:08;103295.53;;;2.71;70.90
61506;BME280;47366;51.916;4.574;2023-02-28T00:05:34;103281.25;;;2.69;71.92
61506;BME280;47366;51.916;4.574;2023-02-28T00:07:59;103284.84;;;2.70;70.89
61506;BME280;47366;51.916;4.574;2023-02-28T00:10:27;103290.19;;;2.70;71.69
61506;BME280;47366;51.916;4.574;2023-02-28T00:12:55;103284.81;;;2.68;71.69
61506;BME280;47366;51.916;4.574;2023-02-28T00:15:22;103277.66;;;2.66;72.05
61506;BME280;47366;51.916;4.574;2023-02-28T00:17:48;103288.28;;;2.61;71.79
61506;BME280;47366;51.916;4.574;2023-02-28T00:20:13;103291.88;;;2.60;71.92
61506;BME280;47366;51.916;4.574;2023-02-28T00:22:41;103292.72;;;2.58;72.25
61506;BME280;47366;51.916;4.574;2023-02-28T00:25:08;103295.41;;;2.58;71.72
61506;BME280;47366;51.916;4.574;2023-02-28T00:27:35;103298.88;;;2.52;71.88
61506;BME280;47366;51.916;4.574;2023-02-28T00:30:01;103316.75;;;2.53;71.98
61506;BME280;47366;51.916;4.574;2023-02-28T00:32:27;103305.97;;;2.47;72.39
61506;BME280;47366;51.916;4.574;2023-02-28T00:34:52;103314.94;;;2.50;72.21
61506;BME280;47366;51.916;4.574;2023-02-28T00:37:18;103314.06;;;2.53;72.55
61506;BME280;47366;51.916;4.574;2023-02-28T00:39:43;103315.88;;;2.55;72.87
61506;BME280;47366;51.916;4.574;2023-02-28T00:42:09;103310.47;;;2.51;72.16
61506;BME280;47366;51.916;4.574;2023-02-28T00:44:34;103305.09;;;2.49;72.77
61506;BME280;47366;51.916;4.574;2023-02-28T00:47:00;103303.38;;;2.54;72.30
61506;BME280;47366;51.916;4.574;2023-02-28T00:49:26;103312.31;;;2.57;72.31
61506;BME280;47366;51.916;4.574;2023-02-28T00:51:52;103311.44;;;2.59;71.67
61506;BME280;47366;51.916;4.574;2023-02-28T00:54:18;103309.66;;;2.57;72.34
61506;BME280;47366;51.916;4.574;2023-02-28T00:56:44;103298.94;;;2.57;72.82
61506;BME280;47366;51.916;4.574;2023-02-28T00:59:11;103298.94;;;2.57;73.09
61506;BME280;47366;51.916;4.574;2023-02-28T01:01:37;103293.66;;;2.61;72.84
61506;BME280;47366;51.916;4.574;2023-02-28T01:04:02;103293.63;;;2.60;72.26
61506;BME280;47366;51.916;4.574;2023-02-28T01:06:28;103299.94;;;2.65;72.28
61506;BME280;47366;51.916;4.574;2023-02-28T01:08:53;103299.97;;;2.68;72.80
61506;BME280;47366;51.916;4.574;2023-02-28T01:11:18;103297.25;;;2.66;71.95
61506;BME280;47366;51.916;4.574;2023-02-28T01:13:45;103302.66;;;2.69;72.35
61506;BME280;47366;51.916;4.574;2023-02-28T01:16:11;103297.31;;;2.69;73.26
61506;BME280;47366;51.916;4.574;2023-02-28T01:18:37;103299.13;;;2.72;72.85
61506;BME280;47366;51.916;4.574;2023-02-28T01:21:04;103306.25;;;2.73;73.01
61506;BME280;47366;51.916;4.574;2023-02-28T01:23:30;103305.34;;;2.71;72.75
61506;BME280;47366;51.916;4.574;2023-02-28T01:25:55;103300.88;;;2.70;72.12
61506;BME280;47366;51.916;4.574;2023-02-28T01:28:21;103298.22;;;2.70;72.73
61506;BME280;47366;51.916;4.574;2023-02-28T01:30:50;103295.56;;;2.73;72.36
61506;BME280;47366;51.916;4.574;2023-02-28T01:33:15;103295.59;;;2.74;72.44
61506;BME280;47366;51.916;4.574;2023-02-28T01:35:41;103298.25;;;2.74;73.30
61506;BME280;47366;51.916;4.574;2023-02-28T01:38:06;103305.41;;;2.75;72.97
61506;BME280;47366;51.916;4.574;2023-02-28T01:40:32;103294.66;;;2.74;72.75
61506;BME280;47366;51.916;4.574;2023-02-28T01:42:57;103299.16;;;2.75;72.89
61506;BME280;47366;51.916;4.574;2023-02-28T01:45:30;103301.84;;;2.78;73.40
61506;BME280;47366;51.916;4.574;2023-02-28T01:48:02;103299.19;;;2.76;72.93
61506;BME280;47366;51.916;4.574;2023-02-28T01:50:34;103294.72;;;2.77;73.06
61506;BME280;47366;51.916;4.574;2023-02-28T01:53:06;103295.59;;;2.78;72.61
61506;BME280;47366;51.916;4.574;2023-02-28T01:55:32;103279.53;;;2.76;72.71
61506;BME280;47366;51.916;4.574;2023-02-28T01:58:00;103284.00;;;2.79;73.58
61506;BME280;47366;51.916;4.574;2023-02-28T02:00:28;103278.66;;;2.77;73.55
61506;BME280;47366;51.916;4.574;2023-02-28T02:03:00;103274.28;;;2.84;73.37
61506;BME280;47366;51.916;4.574;2023-02-28T02:05:28;103275.16;;;2.86;73.09
61506;BME280;47366;51.916;4.574;2023-02-28T02:07:58;103270.69;;;2.85;73.38
61506;BME280;47366;51.916;4.574;2023-02-28T02:10:34;103263.56;;;2.85;72.90
61506;BME280;47366;51.916;4.574;2023-02-28T02:13:05;103266.25;;;2.88;72.43
61506;BME280;47366;51.916;4.574;2023-02-28T02:15:54;103262.69;;;2.88;72.82
61506;BME280;47366;51.916;4.574;2023-02-28T02:18:35;103256.41;;;2.86;72.93
61506;BME280;47366;51.916;4.574;2023-02-28T02:29:26;103261.81;;;2.87;73.04
61506;BME280;47366;51.916;4.574;2023-02-28T02:42:35;103258.28;;;2.93;74.16
61506;BME280;47366;51.916;4.574;2023-02-28T02:45:08;103258.31;;;2.96;73.47
61506;BME280;47366;51.916;4.574;2023-02-28T02:47:36;103253.84;;;2.95;73.62
61506;BME280;47366;51.916;4.574;2023-02-28T02:50:06;103256.56;;;2.98;73.03
61506;BME280;47366;51.916;4.574;2023-02-28T02:52:46;103254.75;;;3.00;73.70
61506;BME280;47366;51.916;4.574;2023-02-28T02:55:14;103253.00;;;3.01;73.69
61506;BME280;47366;51.916;4.574;2023-02-28T02:57:53;103247.63;;;2.99;73.41
61506;BME280;47366;51.916;4.574;2023-02-28T03:00:25;103249.41;;;2.98;73.33
61506;BME280;47366;51.916;4.574;2023-02-28T03:02:52;103257.44;;;2.98;73.83
61506;BME280;47366;51.916;4.574;2023-02-28T03:05:33;103258.34;;;3.02;73.51
61506;BME280;47366;51.916;4.574;2023-02-28T03:08:03;103248.53;;;3.03;73.45
61506;BME280;47366;51.916;4.574;2023-02-28T03:10:37;103257.44;;;2.98;74.01
61506;BME280;47366;51.916;4.574;2023-02-28T03:15:50;103265.53;;;3.03;73.77
61506;BME280;47366;51.916;4.574;2023-02-28T03:24:13;103263.72;;;3.01;73.71
61506;BME280;47366;51.916;4.574;2023-02-28T03:26:45;103266.41;;;3.04;73.95
61506;BME280;47366;51.916;4.574;2023-02-28T03:29:26;103264.59;;;3.03;74.05
61506;BME280;47366;51.916;4.574;2023-02-28T03:31:59;103262.84;;;3.05;73.77
61506;BME280;47366;51.916;4.574;2023-02-28T03:34:34;103261.94;;;3.04;73.77
61506;BME280;47366;51.916;4.574;2023-02-28T03:37:08;103272.69;;;3.06;73.74
61506;BME280;47366;51.916;4.574;2023-02-28T03:39:40;103271.78;;;3.07;74.26
61506;BME280;47366;51.916;4.574;2023-02-28T03:47:32;103261.06;;;3.04;73.90
61506;BME280;47366;51.916;4.574;2023-02-28T03:50:17;103264.66;;;3.06;73.91
61506;BME280;47366;51.916;4.574;2023-02-28T03:52:54;103272.66;;;3.04;74.35
61506;BME280;47366;51.916;4.574;2023-02-28T03:55:28;103254.81;;;3.03;74.13
61506;BME280;47366;51.916;4.574;2023-02-28T03:58:01;103266.38;;;3.02;73.99
61506;BME280;47366;51.916;4.574;2023-02-28T04:00:51;103264.59;;;3.03;74.04
61506;BME280;47366;51.916;4.574;2023-02-28T04:03:20;103256.56;;;3.03;74.05
61506;BME280;47366;51.916;4.574;2023-02-28T04:06:05;103258.41;;;3.05;73.99
61506;BME280;47366;51.916;4.574;2023-02-28T04:08:32;103258.41;;;3.07;74.36
61506;BME280;47366;51.916;4.574;2023-02-28T04:11:03;103249.47;;;3.06;74.64
61506;BME280;47366;51.916;4.574;2023-02-28T04:13:31;103259.28;;;3.07;73.72
61506;BME280;47366;51.916;4.574;2023-02-28T04:15:56;103262.88;;;3.09;73.85
61506;BME280;47366;51.916;4.574;2023-02-28T04:18:21;103261.09;;;3.07;74.13
61506;BME280;47366;51.916;4.574;2023-02-28T04:20:47;103264.69;;;3.10;74.95
61506;BME280;47366;51.916;4.574;2023-02-28T04:23:12;103268.28;;;3.14;74.42
61506;BME280;47366;51.916;4.574;2023-02-28T04:25:37;103261.13;;;3.14;74.25
61506;BME280;47366;51.916;4.574;2023-02-28T04:28:05;103263.81;;;3.14;74.54
61506;BME280;47366;51.916;4.574;2023-02-28T04:30:30;103258.47;;;3.14;74.11
61506;BME280;47366;51.916;4.574;2023-02-28T04:32:57;103257.56;;;3.12;74.04
61506;BME280;47366;51.916;4.574;2023-02-28T04:35:23;103255.75;;;3.11;74.63
61506;BME280;47366;51.916;4.574;2023-02-28T04:37:48;103259.34;;;3.12;73.62
61506;BME280;47366;51.916;4.574;2023-02-28T04:40:13;103264.69;;;3.10;74.88
61506;BME280;47366;51.916;4.574;2023-02-28T04:42:39;103269.16;;;3.14;74.80
61506;BME280;47366;51.916;4.574;2023-02-28T04:45:05;103264.69;;;3.12;74.26
61506;BME280;47366;51.916;4.574;2023-02-28T04:47:30;103276.31;;;3.12;74.94
61506;BME280;47366;51.916;4.574;2023-02-28T04:49:56;103265.59;;;3.11;74.59
61506;BME280;47366;51.916;4.574;2023-02-28T04:52:21;103271.84;;;3.13;75.22
61506;BME280;47366;51.916;4.574;2023-02-28T04:54:46;103276.31;;;3.12;75.09
61506;BME280;47366;51.916;4.574;2023-02-28T04:57:12;103284.38;;;3.15;74.77
61506;BME280;47366;51.916;4.574;2023-02-28T04:59:37;103290.63;;;3.16;74.66
61506;BME280;47366;51.916;4.574;2023-02-28T05:02:02;103287.03;;;3.12;74.47
61506;BME280;47366;51.916;4.574;2023-02-28T05:04:32;103281.69;;;3.12;75.01
61506;BME280;47366;51.916;4.574;2023-02-28T05:06:59;103287.03;;;3.14;75.60
61506;BME280;47366;51.916;4.574;2023-02-28T05:09:25;103283.47;;;3.13;74.80
61506;BME280;47366;51.916;4.574;2023-02-28T05:11:50;103282.56;;;3.13;75.43
61506;BME280;47366;51.916;4.574;2023-02-28T05:14:15;103274.56;;;3.16;75.83
61506;BME280;47366;51.916;4.574;2023-02-28T05:16:41;103290.66;;;3.17;76.00
61506;BME280;47366;51.916;4.574;2023-02-28T05:19:06;103283.47;;;3.16;75.56
61506;BME280;47366;51.916;4.574;2023-02-28T05:21:33;103295.09;;;3.15;74.84
61506;BME280;47366;51.916;4.574;2023-02-28T05:24:01;103283.47;;;3.15;75.26
61506;BME280;47366;51.916;4.574;2023-02-28T05:26:27;103277.19;;;3.11;75.84
61506;BME280;47366;51.916;4.574;2023-02-28T05:28:53;103288.81;;;3.16;75.43
61506;BME280;47366;51.916;4.574;2023-02-28T05:31:19;103292.41;;;3.17;75.04
61506;BME280;47366;51.916;4.574;2023-02-28T05:33:44;103286.16;;;3.16;75.79
61506;BME280;47366;51.916;4.574;2023-02-28T05:36:10;103287.03;;;3.14;76.36
61506;BME280;47366;51.916;4.574;2023-02-28T05:38:35;103300.44;;;3.17;75.88
61506;BME280;47366;51.916;4.574;2023-02-28T05:41:07;103290.56;;;3.10;76.87
61506;BME280;47366;51.916;4.574;2023-02-28T05:43:33;103300.41;;;3.14;76.86
61506;BME280;47366;51.916;4.574;2023-02-28T05:45:59;103299.47;;;3.09;75.48
61506;BME280;47366;51.916;4.574;2023-02-28T05:48:24;103296.78;;;3.06;76.51
61506;BME280;47366;51.916;4.574;2023-02-28T05:50:51;103300.34;;;3.06;76.83
61506;BME280;47366;51.916;4.574;2023-02-28T05:53:16;103311.09;;;3.08;75.81
61506;BME280;47366;51.916;4.574;2023-02-28T05:55:41;103302.09;;;3.01;76.24
61506;BME280;47366;51.916;4.574;2023-02-28T05:58:06;103294.00;;;2.95;75.62
61506;BME280;47366;51.916;4.574;2023-02-28T06:00:32;103291.25;;;2.87;75.90
61506;BME280;47366;51.916;4.574;2023-02-28T06:02:57;103295.66;;;2.82;75.05
61506;BME280;47366;51.916;4.574;2023-02-28T06:05:26;103291.19;;;2.83;74.70
61506;BME280;47366;51.916;4.574;2023-02-28T06:07:52;103294.75;;;2.80;74.26
61506;BME280;47366;51.916;4.574;2023-02-28T06:10:17;103292.03;;;2.77;73.97
61506;BME280;47366;51.916;4.574;2023-02-28T06:12:42;103285.78;;;2.75;74.01
61506;BME280;47366;51.916;4.574;2023-02-28T06:15:15;103289.34;;;2.75;73.77
61506;BME280;47366;51.916;4.574;2023-02-28T06:17:42;103287.56;;;2.78;73.78
61506;BME280;47366;51.916;4.574;2023-02-28T06:20:09;103292.00;;;2.75;73.81
61506;BME280;47366;51.916;4.574;2023-02-28T06:22:36;103297.31;;;2.71;73.29
61506;BME280;47366;51.916;4.574;2023-02-28T06:25:03;103291.06;;;2.67;73.21
61506;BME280;47366;51.916;4.574;2023-02-28T06:27:28;103298.16;;;2.65;73.13
61506;BME280;47366;51.916;4.574;2023-02-28T06:29:54;103292.72;;;2.58;73.27
61506;BME280;47366;51.916;4.574;2023-02-28T06:32:21;103306.91;;;2.50;73.21
61506;BME280;47366;51.916;4.574;2023-02-28T06:34:46;103297.84;;;2.39;74.65
61506;BME280;47366;51.916;4.574;2023-02-28T06:37:11;103299.63;;;2.37;74.69
61506;BME280;47366;51.916;4.574;2023-02-28T06:39:37;103305.88;;;2.39;75.05
61506;BME280;47366;51.916;4.574;2023-02-28T06:42:02;103294.22;;;2.34;75.38
61506;BME280;47366;51.916;4.574;2023-02-28T06:44:31;103297.72;;;2.27;76.36
61506;BME280;47366;51.916;4.574;2023-02-28T06:47:04;103301.25;;;2.26;77.02
61506;BME280;47366;51.916;4.574;2023-02-28T06:49:32;103298.56;;;2.24;76.98
61506;BME280;47366;51.916;4.574;2023-02-28T06:51:57;103297.66;;;2.22;76.85
61506;BME280;47366;51.916;4.574;2023-02-28T06:54:23;103295.78;;;2.17;77.39
61506;BME280;47366;51.916;4.574;2023-02-28T06:56:48;103298.34;;;2.09;77.93
61506;BME280;47366;51.916;4.574;2023-02-28T06:59:14;103306.31;;;2.04;78.98
61506;BME280;47366;51.916;4.574;2023-02-28T07:01:40;103317.00;;;2.04;79.02
61506;BME280;47366;51.916;4.574;2023-02-28T07:04:06;103319.63;;;2.00;80.25
61506;BME280;47366;51.916;4.574;2023-02-28T07:06:31;103328.59;;;2.03;80.34
61506;BME280;47366;51.916;4.574;2023-02-28T07:08:57;103332.06;;;1.98;81.05
61506;BME280;47366;51.916;4.574;2023-02-28T07:11:25;103329.34;;;1.95;80.91
61506;BME280;47366;51.916;4.574;2023-02-28T07:13:55;103336.50;;;1.97;80.41
61506;BME280;47366;51.916;4.574;2023-02-28T07:16:21;103327.63;;;2.00;80.35
61506;BME280;47366;51.916;4.574;2023-02-28T07:18:47;103333.91;;;2.00;80.82
61506;BME280;47366;51.916;4.574;2023-02-28T07:21:13;103318.69;;;1.96;80.63
61506;BME280;47366;51.916;4.574;2023-02-28T07:23:38;103339.22;;;1.99;81.10
61506;BME280;47366;51.916;4.574;2023-02-28T07:26:11;103331.16;;;1.96;81.21
61506;BME280;47366;51.916;4.574;2023-02-28T07:28:39;103339.19;;;1.97;81.29
61506;BME280;47366;51.916;4.574;2023-02-28T07:31:05;103333.91;;;2.00;81.13
61506;BME280;47366;51.916;4.574;2023-02-28T07:33:31;103337.47;;;2.02;80.71
61506;BME280;47366;51.916;4.574;2023-02-28T07:36:08;103340.13;;;2.02;80.96
61506;BME280;47366;51.916;4.574;2023-02-28T07:38:35;103337.53;;;2.07;80.99
61506;BME280;47366;51.916;4.574;2023-02-28T07:41:03;103328.66;;;2.08;81.68
61506;BME280;47366;51.916;4.574;2023-02-28T07:43:30;103336.69;;;2.08;81.70
61506;BME280;47366;51.916;4.574;2023-02-28T07:45:55;103335.78;;;2.07;80.82
61506;BME280;47366;51.916;4.574;2023-02-28T07:48:26;103342.03;;;2.09;81.46
61506;BME280;47366;51.916;4.574;2023-02-28T07:50:57;103338.47;;;2.07;81.47
61506;BME280;47366;51.916;4.574;2023-02-28T07:53:23;103345.56;;;2.05;81.20
61506;BME280;47366;51.916;4.574;2023-02-28T07:55:49;103345.59;;;2.08;81.55
61506;BME280;47366;51.916;4.574;2023-02-28T07:58:14;103330.44;;;2.09;81.73
61506;BME280;47366;51.916;4.574;2023-02-28T08:00:40;103328.72;;;2.14;82.02
61506;BME280;47366;51.916;4.574;2023-02-28T08:03:05;103324.28;;;2.15;81.77
61506;BME280;47366;51.916;4.574;2023-02-28T08:05:30;103318.97;;;2.18;81.73
61506;BME280;47366;51.916;4.574;2023-02-28T08:07:56;103325.25;;;2.21;81.63
61506;BME280;47366;51.916;4.574;2023-02-28T08:10:22;103331.53;;;2.23;81.74
61506;BME280;47366;51.916;4.574;2023-02-28T08:12:49;103329.75;;;2.22;81.92
61506;BME280;47366;51.916;4.574;2023-02-28T08:15:14;103333.28;;;2.21;81.89
61506;BME280;47366;51.916;4.574;2023-02-28T08:17:40;103338.63;;;2.20;82.36
61506;BME280;47366;51.916;4.574;2023-02-28T08:20:05;103322.59;;;2.23;81.48
61506;BME280;47366;51.916;4.574;2023-02-28T08:22:31;103328.00;;;2.26;81.88
61506;BME280;47366;51.916;4.574;2023-02-28T08:24:56;103325.25;;;2.21;81.96
61506;BME280;47366;51.916;4.574;2023-02-28T08:27:22;103327.09;;;2.25;81.59
61506;BME280;47366;51.916;4.574;2023-02-28T08:29:48;103346.78;;;2.30;81.88
61506;BME280;47366;51.916;4.574;2023-02-28T08:32:13;103336.97;;;2.31;81.41
61506;BME280;47366;51.916;4.574;2023-02-28T08:34:39;103328.06;;;2.32;81.01
61506;BME280;47366;51.916;4.574;2023-02-28T08:37:05;103338.84;;;2.37;80.91
61506;BME280;47366;51.916;4.574;2023-02-28T08:39:34;103336.16;;;2.38;81.09
61506;BME280;47366;51.916;4.574;2023-02-28T08:41:59;103336.19;;;2.40;81.15
61506;BME280;47366;51.916;4.574;2023-02-28T08:44:25;103329.94;;;2.39;81.59
61506;BME280;47366;51.916;4.574;2023-02-28T08:46:50;103329.06;;;2.40;81.75
61506;BME280;47366;51.916;4.574;2023-02-28T08:49:15;103328.19;;;2.41;81.37
61506;BME280;47366;51.916;4.574;2023-02-28T08:51:41;103318.38;;;2.40;81.27
61506;BME280;47366;51.916;4.574;2023-02-28T08:54:08;103323.78;;;2.43;81.23
61506;BME280;47366;51.916;4.574;2023-02-28T08:56:33;103326.44;;;2.43;81.16
61506;BME280;47366;51.916;4.574;2023-02-28T08:58:59;103335.34;;;2.45;81.53
61506;BME280;47366;51.916;4.574;2023-02-28T09:01:28;103333.59;;;2.47;81.33
61506;BME280;47366;51.916;4.574;2023-02-28T09:03:54;103333.59;;;2.47;81.70
61506;BME280;47366;51.916;4.574;2023-02-28T09:06:22;103326.53;;;2.52;80.57
61506;BME280;47366;51.916;4.574;2023-02-28T09:08:48;103330.13;;;2.54;80.88
61506;BME280;47366;51.916;4.574;2023-02-28T09:11:14;103327.47;;;2.56;81.13
61506;BME280;47366;51.916;4.574;2023-02-28T09:13:40;103332.84;;;2.58;81.70
61506;BME280;47366;51.916;4.574;2023-02-28T09:16:07;103323.06;;;2.58;81.70
61506;BME280;47366;51.916;4.574;2023-02-28T09:18:35;103333.81;;;2.63;81.26
61506;BME280;47366;51.916;4.574;2023-02-28T09:21:04;103330.25;;;2.62;81.09
61506;BME280;47366;51.916;4.574;2023-02-28T09:23:30;103334.75;;;2.68;81.05
61506;BME280;47366;51.916;4.574;2023-02-28T09:25:55;103334.78;;;2.69;80.72
61506;BME280;47366;51.916;4.574;2023-02-28T09:28:21;103338.31;;;2.68;81.08
61506;BME280;47366;51.916;4.574;2023-02-28T09:30:50;103333.88;;;2.67;81.10
61506;BME280;47366;51.916;4.574;2023-02-28T09:33:17;103336.59;;;2.73;80.58
61506;BME280;47366;51.916;4.574;2023-02-28T09:35:45;103350.84;;;2.71;81.19
61506;BME280;47366;51.916;4.574;2023-02-28T09:38:11;103350.84;;;2.69;81.34
61506;BME280;47366;51.916;4.574;2023-02-28T09:41:00;103346.38;;;2.70;80.84
61506;BME280;47366;51.916;4.574;2023-02-28T09:43:28;103337.47;;;2.74;80.46
61506;BME280;47366;51.916;4.574;2023-02-28T09:48:36;103340.06;;;2.66;81.08
61506;BME280;47366;51.916;4.574;2023-02-28T09:51:05;103344.56;;;2.69;81.90
61506;BME280;47366;51.916;4.574;2023-02-28T09:53:37;103358.00;;;2.72;82.18
61506;BME280;47366;51.916;4.574;2023-02-28T09:56:08;103353.50;;;2.71;80.86
61506;BME280;47366;51.916;4.574;2023-02-28T09:58:42;103357.09;;;2.73;80.62
61506;BME280;47366;51.916;4.574;2023-02-28T10:11:01;103350.00;;;2.75;80.07
61506;BME280;47366;51.916;4.574;2023-02-28T10:13:04;103363.38;;;2.75;80.89
61506;BME280;47366;51.916;4.574;2023-02-28T10:15:32;103349.13;;;2.78;79.80
61506;BME280;47366;51.916;4.574;2023-02-28T10:18:13;103351.84;;;2.81;79.85
61506;BME280;47366;51.916;4.574;2023-02-28T10:20:42;103346.53;;;2.85;79.57
61506;BME280;47366;51.916;4.574;2023-02-28T10:25:36;103336.81;;;2.95;80.36
61506;BME280;47366;51.916;4.574;2023-02-28T10:30:34;103342.31;;;3.06;79.16
61506;BME280;47366;51.916;4.574;2023-02-28T10:33:00;103320.88;;;3.07;79.06
61506;BME280;47366;51.916;4.574;2023-02-28T10:35:26;103321.84;;;3.17;78.32
61506;BME280;47366;51.916;4.574;2023-02-28T10:37:57;103333.72;;;3.45;77.49
61506;BME280;47366;51.916;4.574;2023-02-28T10:45:26;103320.13;;;4.67;74.04
61506;BME280;47366;51.916;4.574;2023-02-28T10:47:55;103310.34;;;5.13;71.12
61506;BME280;47366;51.916;4.574;2023-02-28T10:53:37;103303.09;;;6.05;66.64
61506;BME280;47366;51.916;4.574;2023-02-28T11:01:46;103301.03;;;6.70;62.14
61506;BME280;47366;51.916;4.574;2023-02-28T11:07:26;103295.31;;;7.15;60.47
61506;BME280;47366;51.916;4.574;2023-02-28T11:09:57;103280.84;;;7.30;60.27
61506;BME280;47366;51.916;4.574;2023-02-28T11:12:26;103288.69;;;7.54;59.39
61506;BME280;47366;51.916;4.574;2023-02-28T11:14:57;103278.66;;;7.69;57.77
61506;BME280;47366;51.916;4.574;2023-02-28T11:17:29;103296.88;;;7.43;57.15
61506;BME280;47366;51.916;4.574;2023-02-28T11:20:05;103293.53;;;7.12;58.62
61506;BME280;47366;51.916;4.574;2023-02-28T11:22:37;103291.97;;;6.80;55.38
61506;BME280;47366;51.916;4.574;2023-02-28T11:25:09;103292.06;;;6.67;56.53
61506;BME280;47366;51.916;4.574;2023-02-28T11:27:56;103296.69;;;6.42;55.59
61506;BME280;47366;51.916;4.574;2023-02-28T11:30:41;103294.94;;;6.28;57.02
61506;BME280;47366;51.916;4.574;2023-02-28T11:33:59;103293.97;;;6.45;58.23
61506;BME280;47366;51.916;4.574;2023-02-28T11:36:21;103287.63;;;6.55;59.42
61506;BME280;47366;51.916;4.574;2023-02-28T11:38:51;103281.47;;;6.27;51.42
61506;BME280;47366;51.916;4.574;2023-02-28T11:41:52;103280.66;;;6.14;53.85
61506;BME280;47366;51.916;4.574;2023-02-28T11:46:56;103277.09;;;6.04;56.89
61506;BME280;47366;51.916;4.574;2023-02-28T11:52:02;103265.28;;;6.41;54.88
61506;BME280;47366;51.916;4.574;2023-02-28T12:03:00;103255.59;;;7.40;51.61
61506;BME280;47366;51.916;4.574;2023-02-28T12:08:22;103239.72;;;7.94;48.31
61506;BME280;47366;51.916;4.574;2023-02-28T12:13:24;103243.47;;;8.54;52.32
61506;BME280;47366;51.916;4.574;2023-02-28T12:19:05;103238.03;;;8.55;45.66
61506;BME280;47366;51.916;4.574;2023-02-28T12:21:46;103231.53;;;8.68;48.33
61506;BME280;47366;51.916;4.574;2023-02-28T12:27:01;103229.78;;;8.66;46.70
61506;BME280;47366;51.916;4.574;2023-02-28T12:29:32;103250.63;;;8.56;46.61
61506;BME280;47366;51.916;4.574;2023-02-28T12:32:05;103244.31;;;8.57;46.35
61506;BME280;47366;51.916;4.574;2023-02-28T12:34:36;103240.47;;;8.74;45.97
61506;BME280;47366;51.916;4.574;2023-02-28T12:40:09;103235.66;;;8.94;46.75
61506;BME280;47366;51.916;4.574;2023-02-28T12:42:42;103231.78;;;9.09;47.58
61506;BME280;47366;51.916;4.574;2023-02-28T12:45:39;103232.28;;;9.32;46.29
61506;BME280;47366;51.916;4.574;2023-02-28T12:48:08;103221.31;;;9.40;44.68
61506;BME280;47366;51.916;4.574;2023-02-28T12:50:36;103231.03;;;9.50;45.55
61506;BME280;47366;51.916;4.574;2023-02-28T12:53:23;103226.56;;;9.49;46.28
61506;BME280;47366;51.916;4.574;2023-02-28T12:58:40;103212.81;;;9.60;43.85
61506;BME280;47366;51.916;4.574;2023-02-28T13:03:52;103208.88;;;9.76;45.85
61506;BME280;47366;51.916;4.574;2023-02-28T13:09:39;103193.50;;;9.80;45.71
61506;BME280;47366;51.916;4.574;2023-02-28T13:12:15;103193.44;;;9.83;44.69
61506;BME280;47366;51.916;4.574;2023-02-28T13:14:41;103193.34;;;9.88;45.30
61506;BME280;47366;51.916;4.574;2023-02-28T13:19:36;103191.25;;;9.57;41.77
61506;BME280;47366;51.916;4.574;2023-02-28T13:22:02;103188.44;;;9.62;44.81
61506;BME280;47366;51.916;4.574;2023-02-28T13:24:42;103195.72;;;9.58;43.12
61506;BME280;47366;51.916;4.574;2023-02-28T13:29:39;103189.50;;;9.54;43.26
61506;BME280;47366;51.916;4.574;2023-02-28T13:39:47;103176.28;;;8.88;41.90
61506;BME280;47366;51.916;4.574;2023-02-28T13:47:39;103180.53;;;8.47;42.90
61506;BME280;47366;51.916;4.574;2023-02-28T13:55:50;103166.44;;;8.25;42.86
61506;BME280;47366;51.916;4.574;2023-02-28T14:06:34;103159.78;;;7.84;46.01
61506;BME280;47366;51.916;4.574;2023-02-28T14:09:24;103169.72;;;7.82;45.33
61506;BME280;47366;51.916;4.574;2023-02-28T14:11:51;103165.31;;;7.72;43.40
61506;BME280;47366;51.916;4.574;2023-02-28T14:17:06;103147.59;;;7.51;46.44
61506;BME280;47366;51.916;4.574;2023-02-28T14:19:35;103145.88;;;7.45;47.64
61506;BME280;47366;51.916;4.574;2023-02-28T14:27:32;103146.91;;;7.35;46.14
61506;BME280;47366;51.916;4.574;2023-02-28T14:38:20;103150.56;;;7.28;46.52
61506;BME280;47366;51.916;4.574;2023-02-28T14:40:51;103145.09;;;7.35;47.58
61506;BME280;47366;51.916;4.574;2023-02-28T14:43:26;103139.59;;;7.44;47.38
61506;BME280;47366;51.916;4.574;2023-02-28T14:46:02;103153.03;;;7.48;46.41
61506;BME280;47366;51.916;4.574;2023-02-28T14:48:29;103145.81;;;7.50;45.44
61506;BME280;47366;51.916;4.574;2023-02-28T14:50:57;103138.50;;;7.61;47.51
61506;BME280;47366;51.916;4.574;2023-02-28T14:53:27;103145.59;;;7.68;45.71
61506;BME280;47366;51.916;4.574;2023-02-28T14:55:53;103148.47;;;7.54;43.98
61506;BME280;47366;51.916;4.574;2023-02-28T15:00:51;103149.41;;;7.50;45.58
61506;BME280;47366;51.916;4.574;2023-02-28T15:03:30;103146.75;;;7.47;45.05
61506;BME280;47366;51.916;4.574;2023-02-28T15:06:00;103140.56;;;7.39;44.26
61506;BME280;47366;51.916;4.574;2023-02-28T15:08:27;103143.16;;;7.45;45.78
61506;BME280;47366;51.916;4.574;2023-02-28T15:13:36;103141.31;;;7.52;46.32
61506;BME280;47366;51.916;4.574;2023-02-28T15:16:28;103143.03;;;7.57;46.18
61506;BME280;47366;51.916;4.574;2023-02-28T15:19:05;103141.22;;;7.58;44.75
61506;BME280;47366;51.916;4.574;2023-02-28T15:21:37;103134.09;;;7.52;46.41
61506;BME280;47366;51.916;4.574;2023-02-28T15:26:43;103144.97;;;7.44;46.42
61506;BME280;47366;51.916;4.574;2023-02-28T15:29:17;103144.16;;;7.38;45.31
61506;BME280;47366;51.916;4.574;2023-02-28T15:31:46;103150.56;;;7.26;45.22
61506;BME280;47366;51.916;4.574;2023-02-28T15:34:28;103147.13;;;7.12;44.65
61506;BME280;47366;51.916;4.574;2023-02-28T15:36:58;103150.88;;;6.97;46.73
61506;BME280;47366;51.916;4.574;2023-02-28T15:39:28;103150.03;;;6.92;46.80
61506;BME280;47366;51.916;4.574;2023-02-28T15:42:16;103138.44;;;6.80;45.61
61506;BME280;47366;51.916;4.574;2023-02-28T15:44:43;103142.13;;;6.70;44.54
61506;BME280;47366;51.916;4.574;2023-02-28T15:47:18;103137.66;;;6.66;46.83
61506;BME280;47366;51.916;4.574;2023-02-28T15:49:52;103137.66;;;6.68;47.64